createdAt,value
2023-05-10T07:06:29.447Z,94.60
2023-05-10T07:07:17.808Z,94.90
2023-05-10T07:08:18.526Z,95.10
2023-05-10T07:09:19.210Z,95.21
2023-05-10T07:10:19.906Z,95.31
2023-05-10T07:11:20.628Z,95.31
2023-05-10T07:12:21.374Z,93.28
2023-05-10T07:13:22.169Z,92.16
2023-05-10T07:14:22.961Z,92.47
2023-05-10T07:15:23.668Z,92.67
2023-05-10T07:16:24.428Z,93.07
2023-05-10T07:17:25.294Z,93.18
2023-05-10T07:18:26.101Z,93.28
2023-05-10T07:19:26.864Z,93.59
2023-05-10T07:20:27.561Z,92.47
2023-05-10T07:21:28.348Z,91.96
2023-05-10T07:22:29.044Z,92.57
2023-05-10T07:23:29.790Z,92.87
2023-05-10T07:24:30.545Z,93.18
2023-05-10T07:25:31.271Z,93.79
2023-05-10T07:26:32.041Z,94.20
2023-05-10T07:27:32.825Z,94.40
2023-05-10T07:28:33.684Z,94.50
2023-05-10T07:29:34.383Z,94.70
2023-05-10T07:30:35.128Z,95.10
2023-05-10T07:31:35.906Z,95.31
2023-05-10T07:32:36.754Z,95.10
2023-05-10T07:33:37.488Z,94.90
2023-05-10T07:34:38.188Z,94.80
2023-05-10T07:35:38.888Z,95.10
2023-05-10T07:36:39.621Z,95.21
2023-05-10T07:37:40.311Z,95.31
2023-05-10T07:38:41.205Z,95.01
2023-05-10T07:39:41.907Z,94.90
2023-05-10T07:40:42.625Z,94.90
2023-05-10T07:41:43.338Z,95.01
2023-05-10T07:42:44.086Z,95.10
2023-05-10T07:43:44.836Z,95.21
2023-05-10T07:44:45.713Z,95.31
2023-05-10T07:45:46.490Z,95.51
2023-05-10T07:46:47.252Z,95.51
2023-05-10T07:47:47.983Z,95.62
2023-05-10T07:48:48.713Z,95.62
2023-05-10T07:49:49.455Z,95.82
2023-05-10T07:50:50.168Z,95.92
2023-05-10T07:51:50.883Z,95.72
2023-05-10T07:52:51.585Z,95.01
2023-05-10T07:53:52.345Z,95.01
2023-05-10T07:54:53.067Z,95.10
2023-05-10T07:55:53.792Z,95.41
2023-05-10T07:56:54.503Z,95.47
2023-05-10T07:57:55.310Z,95.72
2023-05-10T07:58:56.012Z,95.72
2023-05-10T07:59:56.723Z,95.62
2023-05-10T08:00:57.431Z,95.72
2023-05-10T08:01:58.188Z,95.67
2023-05-10T08:02:59.036Z,95.21
2023-05-10T08:03:59.942Z,95.01
2023-05-10T08:05:00.653Z,94.29
2023-05-10T08:06:01.347Z,93.48
2023-05-10T08:07:02.071Z,94.40
2023-05-10T08:08:02.772Z,94.70
2023-05-10T08:09:03.498Z,94.70
2023-05-10T08:10:04.206Z,94.50
2023-05-10T08:11:04.918Z,94.60
2023-05-10T08:12:05.640Z,94.70
2023-05-10T08:13:06.357Z,95.01
2023-05-10T08:14:07.066Z,95.47
2023-05-10T08:15:07.847Z,95.82
2023-05-10T08:16:08.743Z,95.67
2023-05-10T08:17:09.557Z,95.37
2023-05-10T08:18:10.304Z,95.26
2023-05-10T08:19:11.079Z,95.17
2023-05-10T08:20:11.764Z,93.95
2023-05-10T08:21:12.475Z,94.15
2023-05-10T08:22:13.177Z,94.25
2023-05-10T08:23:13.864Z,94.45
2023-05-10T08:24:14.584Z,94.66
2023-05-10T08:25:15.663Z,94.96
2023-05-10T08:26:16.069Z,95.26
2023-05-10T08:27:16.821Z,95.57
2023-05-10T08:28:17.507Z,94.66
2023-05-10T08:29:18.260Z,93.54
2023-05-10T08:30:18.969Z,93.54
2023-05-10T08:31:19.703Z,93.03
2023-05-10T08:32:20.438Z,92.42
2023-05-10T08:33:21.171Z,91.82
2023-05-10T08:34:22.252Z,90.90
2023-05-10T08:35:22.549Z,91.67
2023-05-10T08:36:23.271Z,92.12
2023-05-10T08:37:24.001Z,92.38
2023-05-10T08:38:24.724Z,92.48
2023-05-10T08:39:30.437Z,92.18
2023-05-10T08:40:26.463Z,91.16
2023-05-10T08:41:27.227Z,90.75
2023-05-10T08:42:27.930Z,91.26
2023-05-10T08:43:28.640Z,91.87
2023-05-10T08:44:29.362Z,91.97
2023-05-10T08:45:30.098Z,91.56
2023-05-10T08:46:30.817Z,91.26
2023-05-10T08:47:31.639Z,92.07
2023-05-10T08:48:32.383Z,91.16
2023-05-10T08:49:33.077Z,91.06
2023-05-10T08:50:33.818Z,90.66
2023-05-10T08:51:34.537Z,91.47
2023-05-10T08:52:35.245Z,90.96
2023-05-10T08:53:35.951Z,90.75
2023-05-10T08:54:36.721Z,91.06
2023-05-10T08:55:37.419Z,91.77
2023-05-10T08:56:38.136Z,92.89
2023-05-10T08:57:38.865Z,93.49
2023-05-10T08:58:39.602Z,92.38
2023-05-10T08:59:40.315Z,92.48
2023-05-10T09:00:41.086Z,93.09
2023-05-10T09:01:41.783Z,90.14
2023-05-10T09:02:42.554Z,90.25
2023-05-10T09:03:43.329Z,90.55
2023-05-10T09:04:44.131Z,90.19
2023-05-10T09:05:44.852Z,90.90
2023-05-10T09:06:45.720Z,91.20
2023-05-10T09:07:46.395Z,91.71
2023-05-10T09:08:47.202Z,92.22
2023-05-10T09:09:47.895Z,92.83
2023-05-10T09:10:48.661Z,93.64
2023-05-10T09:11:49.379Z,94.05
2023-05-10T09:12:50.101Z,94.25
2023-05-10T09:13:50.862Z,94.05
2023-05-10T09:14:51.574Z,93.84
2023-05-10T09:15:52.292Z,93.54
2023-05-10T09:16:53.066Z,93.13
2023-05-10T09:17:53.879Z,93.33
2023-05-10T09:18:54.659Z,92.22
2023-05-10T09:19:55.385Z,91.71
2023-05-10T09:20:56.105Z,91.20
2023-05-10T09:21:56.808Z,91.61
2023-05-10T09:22:57.550Z,91.91
2023-05-10T09:23:58.289Z,92.47
2023-05-10T09:24:59.025Z,92.26
2023-05-10T09:25:59.727Z,92.52
2023-05-10T09:27:00.436Z,92.93
2023-05-10T09:28:02.299Z,92.67
2023-05-10T09:29:01.907Z,93.28
2023-05-10T09:30:02.625Z,91.96
2023-05-10T09:31:03.502Z,92.26
2023-05-10T09:32:04.212Z,92.67
2023-05-10T09:33:05.020Z,92.97
2023-05-10T09:34:05.756Z,93.18
2023-05-10T09:35:07.312Z,93.38
2023-05-10T09:36:07.435Z,93.79
2023-05-10T09:37:09.097Z,93.99
2023-05-10T09:38:08.766Z,94.20
2023-05-10T09:39:09.435Z,93.79
2023-05-10T09:40:10.141Z,94.20
2023-05-10T09:41:10.850Z,94.29
2023-05-10T09:42:11.581Z,95.21
2023-05-10T09:43:12.313Z,95.10
2023-05-10T09:44:13.038Z,95.21
2023-05-10T09:45:13.830Z,95.41
2023-05-10T09:46:14.585Z,95.41
2023-05-10T09:47:15.286Z,96.23
2023-05-10T09:48:15.987Z,96.53
2023-05-10T09:49:16.707Z,96.69
2023-05-10T09:50:17.402Z,96.59
2023-05-10T09:51:18.106Z,96.28
2023-05-10T09:52:18.983Z,96.08
2023-05-10T09:53:19.722Z,96.59
2023-05-10T09:54:20.427Z,97.20
2023-05-10T09:55:21.156Z,96.75
2023-05-10T09:56:21.872Z,96.34
2023-05-10T09:57:22.595Z,96.84
2023-05-10T09:58:23.477Z,96.84
2023-05-10T09:59:24.173Z,97.05
2023-05-10T10:00:24.918Z,97.05
2023-05-10T10:01:25.673Z,97.86
2023-05-10T10:02:26.414Z,97.45
2023-05-10T10:03:29.682Z,96.50
2023-05-10T10:04:28.146Z,96.39
2023-05-10T10:05:28.943Z,96.50
2023-05-10T10:06:30.616Z,96.60
2023-05-10T10:07:30.339Z,96.50
2023-05-10T10:08:31.070Z,96.80
2023-05-10T10:09:31.748Z,97.16
2023-05-10T10:10:32.484Z,96.75
2023-05-10T10:11:33.199Z,96.66
2023-05-10T10:12:33.917Z,96.15
2023-05-10T10:13:35.136Z,95.94
2023-05-10T10:14:35.274Z,96.04
2023-05-10T10:15:36.022Z,96.04
2023-05-10T10:16:37.594Z,95.94
2023-05-10T10:17:37.591Z,96.51
2023-05-10T10:18:38.325Z,96.51
2023-05-10T10:19:39.064Z,96.10
2023-05-10T10:20:39.778Z,95.79
2023-05-10T10:21:40.485Z,95.50
2023-05-10T10:22:41.174Z,95.50
2023-05-10T10:23:41.880Z,96.00
2023-05-10T10:24:42.642Z,96.20
2023-05-10T10:25:43.346Z,95.39
2023-05-10T10:26:44.045Z,95.19
2023-05-10T10:27:44.841Z,95.39
2023-05-10T10:28:45.534Z,95.39
2023-05-10T10:29:46.259Z,95.50
2023-05-10T10:30:46.951Z,95.79
2023-05-10T10:31:47.693Z,94.98
2023-05-10T10:32:48.396Z,92.86
2023-05-10T10:33:49.098Z,91.94
2023-05-10T17:13:32.119Z,92.74
2023-05-10T17:14:33.980Z,92.79
2023-05-10T17:15:34.603Z,91.73
2023-05-10T17:16:35.386Z,91.22
2023-05-10T17:17:36.300Z,90.25
2023-05-10T17:18:37.078Z,89.64
2023-05-10T17:19:37.777Z,90.14
2023-05-10T17:20:38.488Z,90.75
2023-05-10T17:21:39.182Z,91.26
2023-05-10T17:22:39.910Z,91.77
2023-05-10T17:23:40.608Z,91.97
2023-05-10T17:24:41.351Z,92.38
2023-05-10T17:25:42.080Z,92.79
2023-05-10T17:26:42.846Z,90.96
2023-05-10T17:27:43.573Z,90.75
2023-05-10T17:28:44.276Z,91.06
2023-05-10T17:29:44.969Z,91.87
2023-05-10T17:30:45.686Z,91.67
2023-05-10T17:31:46.428Z,91.77
2023-05-10T17:32:47.189Z,92.07
2023-05-10T17:33:47.898Z,92.58
2023-05-10T17:34:48.609Z,91.87
2023-05-10T17:35:49.319Z,92.18
2023-05-10T17:36:50.053Z,92.58
2023-05-10T17:37:50.776Z,92.38
2023-05-10T17:38:51.502Z,92.28
2023-05-10T17:39:52.263Z,92.38
2023-05-10T17:40:52.976Z,92.48
2023-05-10T17:41:53.673Z,92.79
2023-05-10T17:42:54.374Z,93.19
2023-05-10T17:43:55.084Z,93.49
2023-05-10T17:44:55.854Z,93.29
2023-05-10T17:45:56.614Z,93.29
2023-05-10T17:46:57.321Z,93.29
2023-05-10T17:47:58.064Z,93.29
2023-05-10T17:48:58.830Z,92.99
2023-05-10T17:50:00.150Z,93.19
2023-05-10T17:51:00.270Z,93.60
2023-05-10T17:52:00.999Z,94.00
2023-05-10T17:53:01.693Z,94.21
2023-05-10T17:54:02.486Z,94.10
2023-05-10T17:55:03.188Z,94.00
2023-05-10T17:56:03.901Z,93.60
2023-05-10T17:57:04.605Z,93.70
2023-05-10T17:58:05.307Z,93.70
2023-05-10T17:59:06.089Z,93.80
2023-05-10T18:00:06.776Z,93.90
2023-05-10T18:01:07.552Z,94.10
2023-05-10T18:02:08.352Z,93.70
2023-05-10T18:03:09.191Z,93.49
2023-05-10T18:05:58.808Z,92.58
2023-05-10T18:07:00.732Z,92.79
2023-05-10T18:08:01.420Z,92.99
2023-05-10T18:09:02.127Z,93.19
2023-05-10T18:10:02.855Z,93.40
2023-05-10T18:11:03.542Z,93.70
2023-05-10T18:12:04.228Z,94.10
2023-05-10T18:13:06.894Z,94.31
2023-05-10T18:14:05.855Z,94.51
2023-05-10T18:15:06.650Z,94.51
2023-05-10T18:16:07.384Z,94.31
2023-05-10T18:17:08.345Z,94.31
2023-05-10T18:18:09.128Z,94.61
2023-05-10T18:19:09.916Z,94.71
2023-05-10T18:20:10.654Z,91.97
2023-05-10T18:21:11.377Z,92.63
2023-05-10T18:22:12.055Z,93.03
2023-05-10T18:23:12.768Z,93.44
2023-05-10T18:24:13.485Z,93.44
2023-05-10T18:25:14.308Z,93.54
2023-05-10T18:26:15.218Z,93.84
2023-05-10T18:27:15.997Z,93.44
2023-05-10T18:28:16.835Z,93.44
2023-05-10T18:29:17.560Z,93.54
2023-05-10T18:30:18.266Z,93.74
2023-05-10T18:31:19.015Z,93.74
2023-05-10T18:32:19.757Z,93.84
2023-05-10T18:33:20.574Z,94.05
2023-05-10T18:34:21.289Z,93.74
2023-05-10T18:35:22.291Z,93.33
2023-05-10T18:36:22.553Z,93.54
2023-05-10T18:37:23.269Z,93.74
2023-05-10T18:38:24.049Z,93.74
2023-05-10T18:39:24.785Z,93.84
2023-05-10T18:40:25.495Z,94.05
2023-05-10T18:41:26.581Z,93.74
2023-05-10T18:42:26.865Z,93.54
2023-05-10T18:43:27.757Z,93.44
2023-05-10T18:44:28.445Z,93.24
2023-05-10T18:45:29.233Z,93.33
2023-05-10T18:46:30.008Z,93.13
2023-05-10T18:47:31.545Z,93.44
2023-05-10T18:48:31.672Z,94.05
2023-05-10T18:49:32.442Z,93.33
2023-05-10T18:50:33.207Z,93.84
2023-05-10T18:51:33.908Z,92.72
2023-05-10T18:52:34.664Z,93.03
2023-05-10T18:53:35.438Z,92.36
2023-05-10T18:54:36.131Z,92.47
2023-05-10T18:55:36.906Z,92.97
2023-05-10T18:56:37.664Z,92.97
2023-05-10T18:57:38.417Z,92.97
2023-05-10T18:58:39.106Z,93.18
2023-05-10T18:59:40.013Z,93.38
2023-05-10T19:00:40.771Z,92.97
2023-05-10T19:01:41.547Z,93.18
2023-05-10T19:02:42.373Z,92.67
2023-05-10T19:03:43.063Z,92.67
2023-05-10T19:04:44.220Z,92.77
2023-05-10T19:05:44.327Z,92.77
2023-05-10T19:06:45.043Z,92.77
2023-05-10T19:07:45.751Z,93.07
2023-05-10T19:08:46.423Z,92.97
2023-05-10T19:09:47.177Z,93.18
2023-05-10T19:10:47.897Z,92.97
2023-05-10T19:11:48.608Z,92.06
2023-05-10T19:12:49.333Z,92.26
2023-05-10T19:13:50.086Z,92.47
2023-05-10T19:14:50.788Z,92.77
2023-05-10T19:15:51.588Z,93.28
2023-05-10T19:16:53.389Z,93.79
2023-05-10T19:17:54.116Z,93.99
2023-05-10T19:18:56.404Z,93.99
2023-05-10T19:19:56.041Z,93.79
2023-05-10T19:20:54.865Z,92.16
2023-05-10T19:21:55.588Z,91.96
2023-05-10T19:23:09.105Z,92.06
2023-05-10T19:23:57.785Z,92.57
2023-05-10T19:24:58.188Z,92.36
2023-05-10T19:25:59.335Z,92.57
2023-05-10T19:26:59.318Z,92.67
2023-05-10T19:28:00.035Z,92.47
2023-05-10T19:29:02.183Z,92.87
2023-05-10T19:30:01.916Z,93.38
2023-05-10T19:31:02.743Z,93.68
2023-05-10T19:32:03.708Z,94.09
2023-05-10T19:33:05.913Z,94.40
2023-05-10T19:34:05.523Z,94.40
2023-05-10T19:35:06.197Z,94.40
2023-05-10T19:36:07.257Z,94.50
2023-05-10T19:37:07.933Z,94.20
2023-05-10T19:38:08.735Z,93.59
2023-05-10T19:39:09.445Z,92.67
2023-05-10T19:40:10.153Z,92.87
2023-05-10T19:41:10.854Z,93.18
2023-05-10T19:42:11.575Z,93.18
2023-05-10T19:43:13.957Z,93.28
2023-05-10T19:44:13.117Z,92.61
2023-05-10T19:45:14.767Z,92.36
2023-05-10T19:46:15.075Z,92.67
2023-05-10T19:47:15.585Z,92.87
2023-05-10T19:48:15.848Z,92.91
2023-05-10T19:49:16.557Z,91.49
2023-05-10T19:50:17.291Z,91.80
2023-05-10T19:51:17.996Z,92.51
2023-05-10T19:52:18.790Z,92.82
2023-05-10T19:53:19.478Z,93.12
2023-05-10T19:54:20.222Z,92.51
2023-05-10T19:55:20.945Z,92.21
2023-05-10T19:56:21.649Z,91.60
2023-05-10T19:57:22.379Z,90.17
2023-05-10T19:58:23.119Z,91.19
2023-05-10T19:59:23.822Z,91.80
2023-05-10T20:00:24.593Z,91.90
2023-05-10T20:01:25.398Z,92.00
2023-05-10T20:02:26.228Z,92.61
2023-05-10T20:03:26.938Z,92.82
2023-05-10T20:04:27.646Z,93.02
2023-05-10T20:05:28.347Z,93.22
2023-05-10T20:06:29.075Z,93.12
2023-05-10T20:07:29.779Z,92.91
2023-05-10T20:08:30.479Z,92.71
2023-05-10T20:09:31.174Z,92.61
2023-05-10T20:10:31.888Z,92.61
2023-05-10T20:11:32.582Z,92.71
2023-05-10T20:12:33.288Z,92.51
2023-05-10T20:13:33.998Z,92.61
2023-05-10T20:14:34.796Z,92.91
2023-05-10T20:15:35.539Z,93.12
2023-05-10T20:16:36.361Z,92.71
2023-05-10T20:17:37.106Z,91.69
2023-05-10T20:18:37.832Z,91.60
2023-05-10T20:19:38.541Z,91.69
2023-05-10T20:20:39.295Z,91.80
2023-05-10T20:21:39.993Z,91.80
2023-05-10T20:22:40.703Z,90.99
2023-05-10T20:23:41.417Z,91.49
2023-05-10T20:24:42.126Z,91.60
2023-05-10T20:25:42.835Z,89.81
2023-05-10T20:26:43.555Z,89.50
2023-05-10T20:27:44.270Z,89.30
2023-05-10T20:28:44.963Z,89.40
2023-05-10T20:29:45.711Z,89.91
2023-05-10T20:30:46.412Z,90.11
2023-05-10T20:31:47.300Z,90.11
2023-05-10T20:32:48.122Z,90.72
2023-05-10T20:33:48.849Z,91.13
2023-05-10T20:34:49.553Z,90.62
2023-05-10T20:35:50.260Z,91.13
2023-05-10T20:36:51.039Z,91.33
2023-05-10T20:37:51.743Z,91.53
2023-05-10T20:38:52.472Z,91.84
2023-05-10T20:39:53.160Z,92.14
2023-05-10T20:40:53.871Z,92.55
2023-05-10T20:41:54.576Z,92.96
2023-05-10T20:42:55.295Z,93.06
2023-05-10T20:43:56.128Z,93.16
2023-05-10T20:44:56.882Z,93.16
2023-05-10T20:45:57.636Z,93.26
2023-05-10T20:46:58.351Z,93.16
2023-05-10T20:47:59.207Z,92.96
2023-05-10T20:48:59.967Z,92.96
2023-05-10T20:50:00.669Z,93.06
2023-05-10T20:51:01.366Z,93.26
2023-05-10T20:52:02.337Z,93.67
2023-05-10T20:53:03.035Z,93.77
2023-05-10T20:54:03.770Z,93.71
2023-05-10T20:55:04.456Z,93.51
2023-05-10T20:56:05.175Z,93.67
2023-05-10T20:57:06.104Z,93.67
2023-05-10T20:58:06.864Z,93.57
2023-05-10T20:59:07.614Z,93.71
2023-05-10T21:00:08.400Z,93.71
2023-05-10T21:01:09.142Z,93.92
2023-05-10T21:02:09.894Z,94.08
2023-05-10T21:03:10.612Z,94.32
2023-05-10T21:04:11.322Z,94.08
2023-05-10T21:05:12.100Z,93.98
2023-05-10T21:06:12.787Z,93.67
2023-05-10T21:07:13.508Z,93.67
2023-05-10T21:08:14.206Z,93.87
2023-05-10T21:09:14.930Z,93.98
2023-05-10T21:10:15.793Z,93.98
2023-05-10T21:11:16.605Z,93.26
2023-05-10T21:12:17.283Z,92.96
2023-05-10T21:13:18.032Z,92.76
2023-05-10T21:14:18.760Z,91.74
2023-05-10T21:15:19.470Z,92.04
2023-05-10T21:16:20.377Z,91.23
2023-05-10T21:17:21.097Z,91.07
2023-05-10T21:18:21.823Z,90.72
2023-05-10T21:19:22.650Z,91.07
2023-05-10T21:20:23.356Z,90.97
2023-05-10T21:21:24.112Z,91.48
2023-05-10T21:22:24.801Z,91.68
2023-05-10T21:23:25.495Z,91.99
2023-05-10T21:24:26.234Z,92.19
2023-05-10T21:25:26.962Z,91.68
2023-05-10T21:26:27.709Z,91.17
2023-05-10T21:27:28.458Z,91.48
2023-05-10T21:28:29.159Z,91.99
2023-05-10T21:29:29.909Z,92.09
2023-05-10T21:30:30.683Z,92.19
2023-05-10T21:31:31.446Z,92.40
2023-05-10T21:32:32.284Z,91.99
2023-05-10T21:33:33.088Z,92.09
2023-05-10T21:34:33.824Z,91.68
2023-05-10T21:35:34.612Z,91.68
2023-05-10T21:36:35.511Z,91.78
2023-05-10T21:37:36.329Z,91.88
2023-05-10T21:38:37.019Z,92.09
2023-05-10T21:39:37.762Z,92.49
2023-05-10T21:40:38.497Z,92.70
2023-05-10T21:41:39.220Z,92.80
2023-05-10T21:42:39.934Z,92.70
2023-05-10T21:43:40.647Z,90.86
2023-05-10T21:44:41.351Z,91.07
2023-05-10T21:45:42.087Z,90.36
2023-05-10T21:46:42.800Z,90.66
2023-05-10T21:47:43.571Z,91.17
2023-05-10T21:48:44.270Z,90.46
2023-05-10T21:49:44.991Z,90.60
2023-05-10T21:50:45.706Z,90.66
2023-05-10T21:51:46.406Z,90.66
2023-05-10T21:52:47.132Z,90.66
2023-05-10T21:53:47.858Z,91.07
2023-05-10T21:54:48.629Z,91.17
2023-05-10T21:55:49.657Z,91.31
2023-05-10T21:56:50.361Z,91.58
2023-05-10T21:57:51.250Z,91.42
2023-05-10T21:58:52.021Z,91.72
2023-05-10T21:59:52.838Z,92.09
2023-05-10T22:00:53.568Z,92.44
2023-05-10T22:01:54.352Z,92.49
2023-05-10T22:02:55.151Z,92.70
2023-05-10T22:03:55.883Z,92.90
2023-05-10T22:04:56.617Z,93.15
2023-05-10T22:05:57.330Z,93.15
2023-05-10T22:06:58.085Z,93.05
2023-05-10T22:07:58.839Z,92.54
2023-05-10T22:08:59.530Z,91.58
2023-05-10T22:10:00.232Z,91.72
2023-05-10T22:11:00.977Z,91.62
2023-05-10T22:12:01.718Z,90.81
2023-05-10T22:13:02.432Z,90.40
2023-05-10T22:14:03.160Z,90.09
2023-05-10T22:15:09.959Z,90.60
2023-05-10T22:16:04.900Z,91.01
2023-05-10T22:17:05.873Z,91.52
2023-05-10T22:18:06.656Z,91.62
2023-05-10T22:19:07.401Z,91.31
2023-05-10T22:20:08.079Z,91.52
2023-05-10T22:21:08.786Z,91.62
2023-05-10T22:22:09.533Z,91.72
2023-05-10T22:23:10.216Z,91.52
2023-05-10T22:24:10.934Z,89.79
2023-05-10T22:25:11.661Z,89.69
2023-05-10T22:26:12.451Z,90.30
2023-05-10T22:27:13.161Z,90.30
2023-05-10T22:28:13.910Z,90.30
2023-05-10T22:29:14.632Z,89.99
2023-05-10T22:30:15.437Z,90.30
2023-05-10T22:31:16.274Z,89.69
2023-05-10T22:32:16.992Z,90.20
2023-05-10T22:33:17.690Z,90.81
2023-05-10T22:34:18.393Z,91.22
2023-05-10T22:35:19.130Z,91.26
2023-05-10T22:36:19.862Z,90.85
2023-05-10T22:37:20.546Z,91.46
2023-05-10T22:38:21.258Z,91.05
2023-05-10T22:39:21.956Z,89.12
2023-05-10T22:40:22.651Z,88.92
2023-05-10T22:41:23.365Z,88.31
2023-05-10T22:42:24.095Z,89.22
2023-05-10T22:43:24.755Z,89.83
2023-05-10T22:44:25.458Z,88.71
2023-05-10T22:45:26.772Z,88.10
2023-05-10T22:46:26.910Z,87.69
2023-05-10T22:47:27.737Z,87.08
2023-05-10T22:48:28.401Z,86.77
2023-05-10T22:49:29.115Z,87.18
2023-05-10T22:50:29.823Z,86.88
2023-05-10T22:51:30.533Z,84.53
2023-05-10T22:52:31.236Z,83.65
2023-05-10T22:53:31.914Z,84.94
2023-05-10T22:54:33.764Z,83.92
2023-05-10T22:55:33.360Z,81.52
2023-05-10T22:56:34.058Z,82.74
2023-05-10T22:57:34.811Z,85.08
2023-05-10T22:58:35.518Z,83.86
2023-05-10T22:59:36.247Z,82.74
2023-05-10T23:00:36.952Z,81.93
2023-05-10T23:01:37.717Z,83.25
2023-05-10T23:02:38.466Z,83.45
2023-05-10T23:03:39.168Z,84.17
2023-05-10T23:04:39.891Z,84.61
2023-05-10T23:05:40.604Z,83.70
2023-05-10T23:06:41.341Z,83.09
2023-05-10T23:07:42.026Z,82.98
2023-05-10T23:08:42.733Z,83.18
2023-05-10T23:09:43.466Z,82.68
2023-05-10T23:10:44.165Z,84.61
2023-05-10T23:11:44.869Z,84.92
2023-05-10T23:12:45.587Z,83.70
2023-05-10T23:13:46.348Z,82.37
2023-05-10T23:14:47.018Z,82.17
2023-05-10T23:15:47.767Z,84.66
2023-05-10T23:16:48.541Z,84.86
2023-05-10T23:17:49.342Z,84.66
2023-05-10T23:18:50.097Z,83.94
2023-05-10T23:19:50.806Z,84.55
2023-05-10T23:20:51.509Z,83.84
2023-05-10T23:21:52.211Z,83.94
2023-05-10T23:22:52.928Z,82.51
2023-05-10T23:23:53.634Z,83.94
2023-05-10T23:24:54.319Z,83.33
2023-05-10T23:25:55.040Z,82.71
2023-05-10T23:26:55.741Z,83.84
2023-05-10T23:27:56.448Z,83.73
2023-05-10T23:28:57.155Z,82.82
2023-05-10T23:29:57.842Z,84.45
2023-05-10T23:30:58.549Z,85.27
2023-05-10T23:31:59.324Z,86.18
2023-05-10T23:33:00.065Z,86.49
2023-05-10T23:34:00.845Z,85.77
2023-05-10T23:35:01.505Z,85.57
2023-05-10T23:36:02.258Z,86.08
2023-05-10T23:37:03.069Z,86.39
2023-05-10T23:38:03.799Z,85.77
2023-05-10T23:39:04.503Z,85.68
2023-05-10T23:40:05.269Z,84.86
2023-05-10T23:41:05.992Z,84.34
2023-05-10T23:42:06.707Z,83.73
2023-05-10T23:43:07.382Z,82.31
2023-05-10T23:44:08.113Z,83.23
2023-05-10T23:45:08.863Z,83.53
2023-05-10T23:46:09.586Z,82.10
2023-05-10T23:47:10.270Z,83.33
2023-05-10T23:48:10.979Z,84.34
2023-05-10T23:49:11.699Z,83.37
2023-05-10T23:50:12.408Z,82.41
2023-05-10T23:51:13.128Z,83.16
2023-05-10T23:52:13.854Z,83.84
2023-05-10T23:53:14.535Z,84.55
2023-05-10T23:54:15.242Z,84.75
2023-05-10T23:55:15.954Z,86.39
2023-05-10T23:56:16.683Z,83.73
2023-05-10T23:57:17.381Z,84.14
2023-05-10T23:58:18.071Z,83.63
2023-05-10T23:59:18.789Z,84.55
